sensor_id;sensor_type;location;lat;lon;timestamp;pressure;altitude;pressure_sealevel;temperature;humidity
38466;BME280;24244;51.950;5.902;2024-01-06T00:00:36;100223.38;;;7.21;93.50
38466;BME280;24244;51.950;5.902;2024-01-06T00:03:04;100230.88;;;7.17;92.96
38466;BME280;24244;51.950;5.902;2024-01-06T00:05:31;100230.22;;;7.15;93.00
38466;BME280;24244;51.950;5.902;2024-01-06T00:07:58;100240.13;;;7.13;93.16
38466;BME280;24244;51.950;5.902;2024-01-06T00:10:26;100236.66;;;7.13;92.68
38466;BME280;24244;51.950;5.902;2024-01-06T00:12:53;100235.84;;;7.12;93.19
38466;BME280;24244;51.950;5.902;2024-01-06T00:15:20;100243.94;;;7.11;93.11
38466;BME280;24244;51.950;5.902;2024-01-06T00:17:48;100241.28;;;7.11;92.83
38466;BME280;24244;51.950;5.902;2024-01-06T00:20:15;100245.78;;;7.10;92.56
38466;BME280;24244;51.950;5.902;2024-01-06T00:22:42;100247.94;;;7.06;92.45
38466;BME280;24244;51.950;5.902;2024-01-06T00:25:11;100250.13;;;7.03;92.64
38466;BME280;24244;51.950;5.902;2024-01-06T00:27:39;100252.28;;;6.99;92.60
38466;BME280;24244;51.950;5.902;2024-01-06T00:30:07;100257.75;;;6.98;92.67
38466;BME280;24244;51.950;5.902;2024-01-06T00:32:35;100260.75;;;6.95;92.32
38466;BME280;24244;51.950;5.902;2024-01-06T00:35:04;100262.72;;;6.93;92.47
38466;BME280;24244;51.950;5.902;2024-01-06T00:37:31;100274.66;;;6.89;91.96
38466;BME280;24244;51.950;5.902;2024-01-06T00:39:59;100256.50;;;6.86;92.21
38466;BME280;24244;51.950;5.902;2024-01-06T00:42:26;100271.53;;;6.85;92.35
38466;BME280;24244;51.950;5.902;2024-01-06T00:44:54;100272.88;;;6.81;91.98
38466;BME280;24244;51.950;5.902;2024-01-06T00:47:21;100269.75;;;6.78;92.05
38466;BME280;24244;51.950;5.902;2024-01-06T00:49:50;100274.88;;;6.79;92.09
38466;BME280;24244;51.950;5.902;2024-01-06T00:52:19;100275.84;;;6.78;91.95
38466;BME280;24244;51.950;5.902;2024-01-06T00:54:45;100274.03;;;6.79;92.07
38466;BME280;24244;51.950;5.902;2024-01-06T00:57:14;100268.94;;;6.77;91.90
38466;BME280;24244;51.950;5.902;2024-01-06T00:59:41;100276.03;;;6.77;92.05
38466;BME280;24244;51.950;5.902;2024-01-06T01:02:09;100264.63;;;6.76;92.02
38466;BME280;24244;51.950;5.902;2024-01-06T01:04:36;100272.56;;;6.76;91.90
38466;BME280;24244;51.950;5.902;2024-01-06T01:07:03;100276.72;;;6.71;91.94
38466;BME280;24244;51.950;5.902;2024-01-06T01:09:30;100278.25;;;6.65;91.89
38466;BME280;24244;51.950;5.902;2024-01-06T01:11:57;100281.41;;;6.60;91.84
38466;BME280;24244;51.950;5.902;2024-01-06T01:14:24;100280.75;;;6.58;92.03
38466;BME280;24244;51.950;5.902;2024-01-06T01:16:51;100284.38;;;6.57;91.92
38466;BME280;24244;51.950;5.902;2024-01-06T01:19:19;100289.66;;;6.57;92.02
38466;BME280;24244;51.950;5.902;2024-01-06T01:21:46;100292.97;;;6.59;91.96
38466;BME280;24244;51.950;5.902;2024-01-06T01:24:13;100295.41;;;6.61;91.76
38466;BME280;24244;51.950;5.902;2024-01-06T01:26:40;100299.53;;;6.63;91.71
38466;BME280;24244;51.950;5.902;2024-01-06T01:29:07;100307.28;;;6.65;91.91
38466;BME280;24244;51.950;5.902;2024-01-06T01:31:34;100303.50;;;6.67;92.08
38466;BME280;24244;51.950;5.902;2024-01-06T01:34:02;100309.41;;;6.69;91.74
38466;BME280;24244;51.950;5.902;2024-01-06T01:36:31;100321.63;;;6.71;91.58
38466;BME280;24244;51.950;5.902;2024-01-06T01:38:58;100317.16;;;6.71;91.49
38466;BME280;24244;51.950;5.902;2024-01-06T01:41:25;100321.63;;;6.71;91.46
38466;BME280;24244;51.950;5.902;2024-01-06T01:43:52;100322.97;;;6.66;91.61
38466;BME280;24244;51.950;5.902;2024-01-06T01:46:25;100324.28;;;6.62;91.96
38466;BME280;24244;51.950;5.902;2024-01-06T01:48:53;100329.72;;;6.61;91.76
38466;BME280;24244;51.950;5.902;2024-01-06T01:51:22;100343.28;;;6.58;91.58
38466;BME280;24244;51.950;5.902;2024-01-06T01:53:52;100331.91;;;6.57;91.88
38466;BME280;24244;51.950;5.902;2024-01-06T01:56:20;100342.31;;;6.59;91.88
38466;BME280;24244;51.950;5.902;2024-01-06T01:58:47;100343.75;;;6.61;92.02
38466;BME280;24244;51.950;5.902;2024-01-06T02:01:15;100352.34;;;6.63;91.68
38466;BME280;24244;51.950;5.902;2024-01-06T02:03:42;100349.38;;;6.66;91.60
38466;BME280;24244;51.950;5.902;2024-01-06T02:06:12;100359.13;;;6.66;92.05
38466;BME280;24244;51.950;5.902;2024-01-06T02:08:39;100365.22;;;6.66;91.81
38466;BME280;24244;51.950;5.902;2024-01-06T02:11:08;100362.25;;;6.61;91.91
38466;BME280;24244;51.950;5.902;2024-01-06T02:13:36;100368.56;;;6.60;91.72
38466;BME280;24244;51.950;5.902;2024-01-06T02:16:05;100368.06;;;6.57;91.44
38466;BME280;24244;51.950;5.902;2024-01-06T02:18:32;100380.78;;;6.53;91.73
38466;BME280;24244;51.950;5.902;2024-01-06T02:21:01;100387.06;;;6.52;91.68
38466;BME280;24244;51.950;5.902;2024-01-06T02:23:30;100382.44;;;6.46;91.76
38466;BME280;24244;51.950;5.902;2024-01-06T02:25:57;100382.44;;;6.46;92.02
38466;BME280;24244;51.950;5.902;2024-01-06T02:28:23;100387.91;;;6.45;91.70
38466;BME280;24244;51.950;5.902;2024-01-06T02:30:50;100392.50;;;6.43;91.63
38466;BME280;24244;51.950;5.902;2024-01-06T02:33:17;100393.34;;;6.35;91.67
38466;BME280;24244;51.950;5.902;2024-01-06T02:35:46;100394.50;;;6.33;91.80
38466;BME280;24244;51.950;5.902;2024-01-06T02:38:13;100405.56;;;6.28;91.82
38466;BME280;24244;51.950;5.902;2024-01-06T02:40:42;100405.91;;;6.25;92.06
38466;BME280;24244;51.950;5.902;2024-01-06T02:43:09;100411.50;;;6.22;91.96
38466;BME280;24244;51.950;5.902;2024-01-06T02:45:37;100400.97;;;6.22;92.03
38466;BME280;24244;51.950;5.902;2024-01-06T02:48:04;100418.75;;;6.20;91.98
38466;BME280;24244;51.950;5.902;2024-01-06T02:50:31;100412.84;;;6.18;92.18
38466;BME280;24244;51.950;5.902;2024-01-06T02:52:58;100416.94;;;6.20;92.36
38466;BME280;24244;51.950;5.902;2024-01-06T02:55:25;100422.22;;;6.20;92.01
38466;BME280;24244;51.950;5.902;2024-01-06T02:57:59;100423.56;;;6.16;91.91
38466;BME280;24244;51.950;5.902;2024-01-06T03:00:26;100428.19;;;6.14;91.95
38466;BME280;24244;51.950;5.902;2024-01-06T03:02:53;100431.97;;;6.12;92.03
38466;BME280;24244;51.950;5.902;2024-01-06T03:05:20;100432.97;;;6.11;91.82
38466;BME280;24244;51.950;5.902;2024-01-06T03:07:47;100438.41;;;6.09;91.96
38466;BME280;24244;51.950;5.902;2024-01-06T03:10:14;100444.16;;;6.05;91.81
38466;BME280;24244;51.950;5.902;2024-01-06T03:12:41;100447.47;;;5.99;91.97
38466;BME280;24244;51.950;5.902;2024-01-06T03:15:10;100445.81;;;5.98;92.02
38466;BME280;24244;51.950;5.902;2024-01-06T03:17:38;100453.25;;;5.94;92.20
38466;BME280;24244;51.950;5.902;2024-01-06T03:20:06;100454.06;;;5.95;92.05
38466;BME280;24244;51.950;5.902;2024-01-06T03:22:34;100458.66;;;5.93;91.88
38466;BME280;24244;51.950;5.902;2024-01-06T03:25:01;100457.38;;;5.97;92.13
38466;BME280;24244;51.950;5.902;2024-01-06T03:27:29;100462.31;;;6.00;91.78
38466;BME280;24244;51.950;5.902;2024-01-06T03:29:56;100471.06;;;6.00;91.91
38466;BME280;24244;51.950;5.902;2024-01-06T03:32:24;100472.19;;;5.98;91.79
38466;BME280;24244;51.950;5.902;2024-01-06T03:34:51;100468.91;;;5.96;91.92
38466;BME280;24244;51.950;5.902;2024-01-06T03:37:18;100475.00;;;5.96;92.08
38466;BME280;24244;51.950;5.902;2024-01-06T03:39:46;100468.09;;;5.95;91.75
38466;BME280;24244;51.950;5.902;2024-01-06T03:42:13;100475.31;;;5.93;91.89
38466;BME280;24244;51.950;5.902;2024-01-06T03:44:41;100474.34;;;5.94;91.77
38466;BME280;24244;51.950;5.902;2024-01-06T03:47:07;100475.84;;;5.97;91.81
38466;BME280;24244;51.950;5.902;2024-01-06T03:49:36;100479.28;;;5.97;91.89
38466;BME280;24244;51.950;5.902;2024-01-06T03:52:04;100486.41;;;5.97;91.71
38466;BME280;24244;51.950;5.902;2024-01-06T03:54:31;100486.06;;;6.00;91.88
38466;BME280;24244;51.950;5.902;2024-01-06T03:56:58;100498.41;;;5.99;91.56
38466;BME280;24244;51.950;5.902;2024-01-06T03:59:25;100492.81;;;5.94;91.68
38466;BME280;24244;51.950;5.902;2024-01-06T04:01:52;100496.75;;;5.90;91.84
38466;BME280;24244;51.950;5.902;2024-01-06T04:04:19;100497.56;;;5.90;92.19
38466;BME280;24244;51.950;5.902;2024-01-06T04:06:48;100503.50;;;5.93;92.02
38466;BME280;24244;51.950;5.902;2024-01-06T04:09:15;100514.22;;;5.91;91.97
38466;BME280;24244;51.950;5.902;2024-01-06T04:11:44;100510.59;;;5.92;91.99
38466;BME280;24244;51.950;5.902;2024-01-06T04:14:11;100514.06;;;5.93;91.89
38466;BME280;24244;51.950;5.902;2024-01-06T04:16:38;100505.66;;;5.89;91.97
38466;BME280;24244;51.950;5.902;2024-01-06T04:19:05;100512.06;;;5.86;91.91
38466;BME280;24244;51.950;5.902;2024-01-06T04:21:35;100515.66;;;5.85;91.61
38466;BME280;24244;51.950;5.902;2024-01-06T04:24:04;100510.41;;;5.85;92.10
38466;BME280;24244;51.950;5.902;2024-01-06T04:26:31;100519.44;;;5.83;91.60
38466;BME280;24244;51.950;5.902;2024-01-06T04:28:58;100513.00;;;5.77;91.68
38466;BME280;24244;51.950;5.902;2024-01-06T04:31:25;100517.28;;;5.70;91.74
38466;BME280;24244;51.950;5.902;2024-01-06T04:33:52;100513.78;;;5.62;91.99
38466;BME280;24244;51.950;5.902;2024-01-06T04:36:19;100511.78;;;5.56;92.05
38466;BME280;24244;51.950;5.902;2024-01-06T04:38:46;100516.75;;;5.59;92.25
38466;BME280;24244;51.950;5.902;2024-01-06T04:41:14;100521.19;;;5.58;92.04
38466;BME280;24244;51.950;5.902;2024-01-06T04:43:41;100532.25;;;5.54;92.12
38466;BME280;24244;51.950;5.902;2024-01-06T04:46:08;100529.75;;;5.52;92.03
38466;BME280;24244;51.950;5.902;2024-01-06T04:48:35;100521.50;;;5.47;92.13
38466;BME280;24244;51.950;5.902;2024-01-06T04:51:02;100525.28;;;5.44;92.26
38466;BME280;24244;51.950;5.902;2024-01-06T04:53:30;100526.41;;;5.42;92.33
38466;BME280;24244;51.950;5.902;2024-01-06T04:55:57;100536.94;;;5.42;92.11
38466;BME280;24244;51.950;5.902;2024-01-06T04:58:25;100540.41;;;5.42;92.30
38466;BME280;24244;51.950;5.902;2024-01-06T05:00:52;100538.13;;;5.39;92.35
38466;BME280;24244;51.950;5.902;2024-01-06T05:03:19;100546.03;;;5.39;92.32
38466;BME280;24244;51.950;5.902;2024-01-06T05:05:46;100543.53;;;5.38;92.44
38466;BME280;24244;51.950;5.902;2024-01-06T05:08:13;100543.38;;;5.39;92.15
38466;BME280;24244;51.950;5.902;2024-01-06T05:10:40;100553.09;;;5.39;92.24
38466;BME280;24244;51.950;5.902;2024-01-06T05:13:07;100558.50;;;5.37;92.08
38466;BME280;24244;51.950;5.902;2024-01-06T05:15:35;100550.47;;;5.39;92.21
38466;BME280;24244;51.950;5.902;2024-01-06T05:18:03;100562.97;;;5.37;91.88
38466;BME280;24244;51.950;5.902;2024-01-06T05:20:31;100564.78;;;5.36;92.03
38466;BME280;24244;51.950;5.902;2024-01-06T05:22:57;100564.91;;;5.35;92.06
38466;BME280;24244;51.950;5.902;2024-01-06T05:25:24;100567.56;;;5.35;92.06
38466;BME280;24244;51.950;5.902;2024-01-06T05:27:51;100575.59;;;5.33;92.05
38466;BME280;24244;51.950;5.902;2024-01-06T05:30:18;100571.66;;;5.29;91.90
38466;BME280;24244;51.950;5.902;2024-01-06T05:32:47;100577.91;;;5.28;91.99
38466;BME280;24244;51.950;5.902;2024-01-06T05:35:15;100587.75;;;5.26;92.19
38466;BME280;24244;51.950;5.902;2024-01-06T05:37:42;100587.25;;;5.23;91.92
38466;BME280;24244;51.950;5.902;2024-01-06T05:40:09;100591.03;;;5.20;91.83
38466;BME280;24244;51.950;5.902;2024-01-06T05:42:36;100585.25;;;5.17;91.98
38466;BME280;24244;51.950;5.902;2024-01-06T05:45:04;100606.78;;;5.12;91.86
38466;BME280;24244;51.950;5.902;2024-01-06T05:47:31;100601.31;;;5.05;91.96
38466;BME280;24244;51.950;5.902;2024-01-06T05:49:59;100600.66;;;5.03;92.01
38466;BME280;24244;51.950;5.902;2024-01-06T05:52:26;100613.28;;;5.00;92.05
38466;BME280;24244;51.950;5.902;2024-01-06T05:54:53;100605.72;;;4.97;91.78
38466;BME280;24244;51.950;5.902;2024-01-06T05:57:20;100611.13;;;4.95;91.82
38466;BME280;24244;51.950;5.902;2024-01-06T05:59:47;100615.41;;;4.96;91.86
38466;BME280;24244;51.950;5.902;2024-01-06T06:02:14;100615.41;;;4.96;92.15
38466;BME280;24244;51.950;5.902;2024-01-06T06:04:41;100623.13;;;4.98;92.09
38466;BME280;24244;51.950;5.902;2024-01-06T06:07:12;100625.94;;;4.96;91.95
38466;BME280;24244;51.950;5.902;2024-01-06T06:09:39;100629.56;;;4.95;91.82
38466;BME280;24244;51.950;5.902;2024-01-06T06:12:08;100635.81;;;4.94;91.73
38466;BME280;24244;51.950;5.902;2024-01-06T06:14:34;100639.69;;;4.90;91.74
38466;BME280;24244;51.950;5.902;2024-01-06T06:17:01;100651.38;;;4.88;91.63
38466;BME280;24244;51.950;5.902;2024-01-06T06:19:28;100647.94;;;4.87;91.72
38466;BME280;24244;51.950;5.902;2024-01-06T06:21:56;100658.75;;;4.84;91.62
38466;BME280;24244;51.950;5.902;2024-01-06T06:24:24;100665.00;;;4.83;91.81
38466;BME280;24244;51.950;5.902;2024-01-06T06:26:51;100669.59;;;4.81;91.72
38466;BME280;24244;51.950;5.902;2024-01-06T06:29:18;100673.34;;;4.79;91.85
38466;BME280;24244;51.950;5.902;2024-01-06T06:31:47;100671.84;;;4.76;91.61
38466;BME280;24244;51.950;5.902;2024-01-06T06:34:15;100686.00;;;4.75;91.32
38466;BME280;24244;51.950;5.902;2024-01-06T06:36:42;100681.16;;;4.70;91.73
38466;BME280;24244;51.950;5.902;2024-01-06T06:39:09;100685.78;;;4.68;91.60
38466;BME280;24244;51.950;5.902;2024-01-06T06:41:38;100696.75;;;4.64;91.46
38466;BME280;24244;51.950;5.902;2024-01-06T06:44:05;100700.53;;;4.61;91.27
38466;BME280;24244;51.950;5.902;2024-01-06T06:46:32;100705.25;;;4.58;91.51
38466;BME280;24244;51.950;5.902;2024-01-06T06:49:00;100707.19;;;4.56;91.47
38466;BME280;24244;51.950;5.902;2024-01-06T06:51:28;100710.50;;;4.58;91.32
38466;BME280;24244;51.950;5.902;2024-01-06T06:53:56;100713.28;;;4.56;91.38
38466;BME280;24244;51.950;5.902;2024-01-06T06:56:23;100720.53;;;4.54;91.31
38466;BME280;24244;51.950;5.902;2024-01-06T06:58:52;100721.50;;;4.53;91.32
38466;BME280;24244;51.950;5.902;2024-01-06T07:01:19;100727.03;;;4.50;91.28
38466;BME280;24244;51.950;5.902;2024-01-06T07:03:46;100718.16;;;4.51;91.07
38466;BME280;24244;51.950;5.902;2024-01-06T07:06:14;100730.63;;;4.49;90.98
38466;BME280;24244;51.950;5.902;2024-01-06T07:08:42;100728.84;;;4.50;91.09
38466;BME280;24244;51.950;5.902;2024-01-06T07:11:09;100732.44;;;4.49;91.15
38466;BME280;24244;51.950;5.902;2024-01-06T07:13:38;100745.78;;;4.47;91.01
38466;BME280;24244;51.950;5.902;2024-01-06T07:16:07;100753.25;;;4.42;90.90
38466;BME280;24244;51.950;5.902;2024-01-06T07:18:44;100768.22;;;4.42;90.91
38466;BME280;24244;51.950;5.902;2024-01-06T07:21:12;100768.53;;;4.39;90.78
38466;BME280;24244;51.950;5.902;2024-01-06T07:23:40;100772.13;;;4.38;90.88
38466;BME280;24244;51.950;5.902;2024-01-06T07:26:06;100774.91;;;4.36;90.79
38466;BME280;24244;51.950;5.902;2024-01-06T07:28:35;100778.34;;;4.37;90.70
38466;BME280;24244;51.950;5.902;2024-01-06T07:31:04;100779.31;;;4.36;90.71
38466;BME280;24244;51.950;5.902;2024-01-06T07:33:33;100779.47;;;4.34;90.82
38466;BME280;24244;51.950;5.902;2024-01-06T07:36:00;100776.19;;;4.32;90.54
38466;BME280;24244;51.950;5.902;2024-01-06T07:38:27;100783.91;;;4.33;90.61
38466;BME280;24244;51.950;5.902;2024-01-06T07:40:54;100784.91;;;4.32;90.64
38466;BME280;24244;51.950;5.902;2024-01-06T07:43:21;100787.38;;;4.34;90.67
38466;BME280;24244;51.950;5.902;2024-01-06T07:45:48;100799.03;;;4.31;90.55
38466;BME280;24244;51.950;5.902;2024-01-06T07:48:16;100798.34;;;4.29;90.37
38466;BME280;24244;51.950;5.902;2024-01-06T07:50:44;100804.28;;;4.31;90.66
38466;BME280;24244;51.950;5.902;2024-01-06T07:53:12;100805.94;;;4.32;90.55
38466;BME280;24244;51.950;5.902;2024-01-06T07:55:40;100809.94;;;4.37;90.69
38466;BME280;24244;51.950;5.902;2024-01-06T07:58:07;100813.91;;;4.41;90.55
38466;BME280;24244;51.950;5.902;2024-01-06T08:00:34;100819.50;;;4.38;90.27
38466;BME280;24244;51.950;5.902;2024-01-06T08:03:01;100826.16;;;4.32;90.06
38466;BME280;24244;51.950;5.902;2024-01-06T08:05:31;100831.44;;;4.32;90.25
38466;BME280;24244;51.950;5.902;2024-01-06T08:08:00;100838.50;;;4.31;90.44
38466;BME280;24244;51.950;5.902;2024-01-06T08:10:26;100844.72;;;4.30;90.29
38466;BME280;24244;51.950;5.902;2024-01-06T08:12:53;100845.69;;;4.29;90.28
38466;BME280;24244;51.950;5.902;2024-01-06T08:15:21;100847.34;;;4.30;90.53
38466;BME280;24244;51.950;5.902;2024-01-06T08:17:48;100854.16;;;4.33;90.56
38466;BME280;24244;51.950;5.902;2024-01-06T08:20:15;100856.59;;;4.34;90.36
38466;BME280;24244;51.950;5.902;2024-01-06T08:22:42;100866.84;;;4.38;90.57
38466;BME280;24244;51.950;5.902;2024-01-06T08:25:10;100866.16;;;4.36;89.99
38466;BME280;24244;51.950;5.902;2024-01-06T08:27:37;100870.91;;;4.32;90.19
38466;BME280;24244;51.950;5.902;2024-01-06T08:30:05;100866.75;;;4.29;90.26
38466;BME280;24244;51.950;5.902;2024-01-06T08:32:33;100887.78;;;4.29;90.10
38466;BME280;24244;51.950;5.902;2024-01-06T08:35:00;100885.59;;;4.25;90.21
38466;BME280;24244;51.950;5.902;2024-01-06T08:37:27;100889.47;;;4.21;90.52
38466;BME280;24244;51.950;5.902;2024-01-06T08:39:53;100885.16;;;4.20;90.26
38466;BME280;24244;51.950;5.902;2024-01-06T08:42:22;100898.88;;;4.23;90.62
38466;BME280;24244;51.950;5.902;2024-01-06T08:44:50;100898.31;;;4.20;90.09
38466;BME280;24244;51.950;5.902;2024-01-06T08:47:17;100893.38;;;4.17;90.09
38466;BME280;24244;51.950;5.902;2024-01-06T08:49:44;100909.84;;;4.19;90.37
38466;BME280;24244;51.950;5.902;2024-01-06T08:52:11;100907.22;;;4.19;90.42
38466;BME280;24244;51.950;5.902;2024-01-06T08:54:41;100911.34;;;4.21;90.38
38466;BME280;24244;51.950;5.902;2024-01-06T08:57:08;100916.59;;;4.21;90.26
38466;BME280;24244;51.950;5.902;2024-01-06T08:59:36;100921.72;;;4.23;90.24
38466;BME280;24244;51.950;5.902;2024-01-06T09:02:03;100926.16;;;4.22;90.01
38466;BME280;24244;51.950;5.902;2024-01-06T09:04:30;100923.66;;;4.21;90.19
38466;BME280;24244;51.950;5.902;2024-01-06T09:06:57;100928.78;;;4.22;90.03
38466;BME280;24244;51.950;5.902;2024-01-06T09:09:25;100932.53;;;4.20;89.99
38466;BME280;24244;51.950;5.902;2024-01-06T09:11:52;100929.75;;;4.21;90.23
38466;BME280;24244;51.950;5.902;2024-01-06T09:14:19;100938.47;;;4.22;90.03
38466;BME280;24244;51.950;5.902;2024-01-06T09:16:48;100947.66;;;4.18;90.06
38466;BME280;24244;51.950;5.902;2024-01-06T09:19:15;100945.69;;;4.20;90.47
38466;BME280;24244;51.950;5.902;2024-01-06T09:21:43;100953.75;;;4.18;90.10
38466;BME280;24244;51.950;5.902;2024-01-06T09:24:11;100948.47;;;4.18;90.28
38466;BME280;24244;51.950;5.902;2024-01-06T09:26:38;100955.94;;;4.23;90.11
38466;BME280;24244;51.950;5.902;2024-01-06T09:29:05;100958.44;;;4.24;90.10
38466;BME280;24244;51.950;5.902;2024-01-06T09:31:32;100962.56;;;4.27;90.11
38466;BME280;24244;51.950;5.902;2024-01-06T09:34:02;100971.28;;;4.27;90.07
38466;BME280;24244;51.950;5.902;2024-01-06T09:36:30;100975.44;;;4.30;90.14
38466;BME280;24244;51.950;5.902;2024-01-06T09:38:58;100985.97;;;4.30;89.73
38466;BME280;24244;51.950;5.902;2024-01-06T09:41:25;100986.25;;;4.27;90.12
38466;BME280;24244;51.950;5.902;2024-01-06T09:43:52;100990.66;;;4.26;90.16
38466;BME280;24244;51.950;5.902;2024-01-06T09:46:23;101000.09;;;4.29;90.11
38466;BME280;24244;51.950;5.902;2024-01-06T09:48:54;101000.22;;;4.27;90.12
38466;BME280;24244;51.950;5.902;2024-01-06T09:51:24;101002.72;;;4.29;89.93
38466;BME280;24244;51.950;5.902;2024-01-06T09:54:08;100995.94;;;4.26;90.07
38466;BME280;24244;51.950;5.902;2024-01-06T09:56:39;100999.41;;;4.27;90.09
38466;BME280;24244;51.950;5.902;2024-01-06T09:59:06;101002.19;;;4.25;89.88
38466;BME280;24244;51.950;5.902;2024-01-06T10:01:33;101004.13;;;4.23;89.97
38466;BME280;24244;51.950;5.902;2024-01-06T10:04:00;101013.56;;;4.26;90.07
38466;BME280;24244;51.950;5.902;2024-01-06T10:06:29;101010.75;;;4.27;89.95
38466;BME280;24244;51.950;5.902;2024-01-06T10:08:56;101012.41;;;4.28;90.05
38466;BME280;24244;51.950;5.902;2024-01-06T10:11:23;101017.69;;;4.28;89.89
38466;BME280;24244;51.950;5.902;2024-01-06T10:13:50;101017.56;;;4.30;89.73
38466;BME280;24244;51.950;5.902;2024-01-06T10:16:19;101024.59;;;4.29;89.89
38466;BME280;24244;51.950;5.902;2024-01-06T10:18:46;101033.22;;;4.31;90.19
38466;BME280;24244;51.950;5.902;2024-01-06T10:21:20;101030.44;;;4.33;89.91
38466;BME280;24244;51.950;5.902;2024-01-06T10:23:48;101031.25;;;4.33;89.99
38466;BME280;24244;51.950;5.902;2024-01-06T10:26:15;101032.25;;;4.32;90.05
38466;BME280;24244;51.950;5.902;2024-01-06T10:28:42;101032.78;;;4.26;90.03
38466;BME280;24244;51.950;5.902;2024-01-06T10:31:09;101048.72;;;4.25;90.17
38466;BME280;24244;51.950;5.902;2024-01-06T10:33:36;101040.13;;;4.23;90.16
38466;BME280;24244;51.950;5.902;2024-01-06T10:36:04;101036.78;;;4.21;90.08
38466;BME280;24244;51.950;5.902;2024-01-06T10:38:32;101047.06;;;4.24;90.23
38466;BME280;24244;51.950;5.902;2024-01-06T10:41:03;101049.38;;;4.27;90.05
38466;BME280;24244;51.950;5.902;2024-01-06T10:43:35;101047.31;;;4.30;89.84
38466;BME280;24244;51.950;5.902;2024-01-06T10:46:04;101049.13;;;4.30;89.97
38466;BME280;24244;51.950;5.902;2024-01-06T10:48:32;101050.94;;;4.29;89.97
38466;BME280;24244;51.950;5.902;2024-01-06T10:51:00;101044.97;;;4.27;90.02
38466;BME280;24244;51.950;5.902;2024-01-06T10:53:29;101053.00;;;4.26;89.89
38466;BME280;24244;51.950;5.902;2024-01-06T10:55:58;101054.94;;;4.24;90.08
38466;BME280;24244;51.950;5.902;2024-01-06T10:58:27;101061.03;;;4.24;89.77
38466;BME280;24244;51.950;5.902;2024-01-06T11:00:56;101065.72;;;4.21;89.97
38466;BME280;24244;51.950;5.902;2024-01-06T11:03:24;101065.84;;;4.19;90.09
38466;BME280;24244;51.950;5.902;2024-01-06T11:05:52;101067.53;;;4.20;89.85
38466;BME280;24244;51.950;5.902;2024-01-06T11:08:21;101067.53;;;4.20;90.03
38466;BME280;24244;51.950;5.902;2024-01-06T11:10:48;101075.16;;;4.23;90.20
38466;BME280;24244;51.950;5.902;2024-01-06T11:13:21;101069.06;;;4.23;89.67
38466;BME280;24244;51.950;5.902;2024-01-06T11:15:52;101076.97;;;4.23;89.80
38466;BME280;24244;51.950;5.902;2024-01-06T11:18:33;101073.50;;;4.22;89.76
38466;BME280;24244;51.950;5.902;2024-01-06T11:21:15;101078.47;;;4.16;89.71
38466;BME280;24244;51.950;5.902;2024-01-06T11:24:13;101079.31;;;4.16;89.67
38466;BME280;24244;51.950;5.902;2024-01-06T11:26:43;101078.72;;;4.13;89.92
38466;BME280;24244;51.950;5.902;2024-01-06T11:29:11;101075.81;;;4.06;89.93
38466;BME280;24244;51.950;5.902;2024-01-06T11:31:40;101084.41;;;4.08;89.87
38466;BME280;24244;51.950;5.902;2024-01-06T11:34:15;101082.75;;;4.07;89.90
38466;BME280;24244;51.950;5.902;2024-01-06T11:36:43;101088.72;;;4.09;89.99
38466;BME280;24244;51.950;5.902;2024-01-06T11:39:34;101091.59;;;4.06;89.66
38466;BME280;24244;51.950;5.902;2024-01-06T11:42:03;101082.22;;;4.04;89.73
38466;BME280;24244;51.950;5.902;2024-01-06T11:44:33;101091.06;;;4.03;89.62
38466;BME280;24244;51.950;5.902;2024-01-06T11:47:04;101081.63;;;4.00;89.85
38466;BME280;24244;51.950;5.902;2024-01-06T11:49:31;101083.56;;;3.98;89.76
38466;BME280;24244;51.950;5.902;2024-01-06T11:52:00;101090.78;;;3.96;90.02
38466;BME280;24244;51.950;5.902;2024-01-06T11:54:27;101087.19;;;3.97;89.79
38466;BME280;24244;51.950;5.902;2024-01-06T11:56:54;101090.47;;;3.99;89.78
38466;BME280;24244;51.950;5.902;2024-01-06T11:59:23;101090.47;;;3.99;89.63
38466;BME280;24244;51.950;5.902;2024-01-06T12:01:50;101096.72;;;3.98;89.91
38466;BME280;24244;51.950;5.902;2024-01-06T12:04:19;101094.22;;;3.97;89.60
38466;BME280;24244;51.950;5.902;2024-01-06T12:06:49;101090.06;;;3.94;89.29
38466;BME280;24244;51.950;5.902;2024-01-06T12:09:17;101090.31;;;3.91;89.48
38466;BME280;24244;51.950;5.902;2024-01-06T12:11:46;101086.06;;;3.90;89.62
38466;BME280;24244;51.950;5.902;2024-01-06T12:14:13;101091.03;;;3.93;89.64
38466;BME280;24244;51.950;5.902;2024-01-06T12:16:40;101093.53;;;3.94;89.53
38466;BME280;24244;51.950;5.902;2024-01-06T12:19:07;101101.53;;;3.93;89.30
38466;BME280;24244;51.950;5.902;2024-01-06T12:21:35;101097.41;;;3.90;89.34
38466;BME280;24244;51.950;5.902;2024-01-06T12:24:16;101098.22;;;3.91;89.63
38466;BME280;24244;51.950;5.902;2024-01-06T12:26:48;101099.03;;;3.91;89.32
38466;BME280;24244;51.950;5.902;2024-01-06T12:29:17;101098.50;;;3.88;89.36
38466;BME280;24244;51.950;5.902;2024-01-06T12:31:44;101093.25;;;3.88;89.48
38466;BME280;24244;51.950;5.902;2024-01-06T12:34:11;101102.09;;;3.87;89.18
38466;BME280;24244;51.950;5.902;2024-01-06T12:36:41;101090.31;;;3.81;89.21
38466;BME280;24244;51.950;5.902;2024-01-06T12:39:10;101101.66;;;3.82;89.18
38466;BME280;24244;51.950;5.902;2024-01-06T12:41:40;101094.34;;;3.85;89.36
38466;BME280;24244;51.950;5.902;2024-01-06T12:44:08;101095.88;;;3.88;89.33
38466;BME280;24244;51.950;5.902;2024-01-06T12:46:35;101095.88;;;3.88;89.20
38466;BME280;24244;51.950;5.902;2024-01-06T12:49:02;101097.53;;;3.89;89.12
38466;BME280;24244;51.950;5.902;2024-01-06T12:51:30;101094.63;;;3.92;89.45
38466;BME280;24244;51.950;5.902;2024-01-06T12:53:58;101095.75;;;3.89;89.06
38466;BME280;24244;51.950;5.902;2024-01-06T12:56:25;101097.53;;;3.89;89.16
38466;BME280;24244;51.950;5.902;2024-01-06T12:58:52;101101.00;;;3.89;89.23
38466;BME280;24244;51.950;5.902;2024-01-06T13:01:19;101104.47;;;3.90;89.03
38466;BME280;24244;51.950;5.902;2024-01-06T13:03:46;101108.19;;;3.87;89.11